»·PEaware :: ASA241 CYBD-PAJN

ASA241 :: CYBD-PAJN

FLIGHT INFORMATION

Flight Status: Arrived
Operator:
Alaska Airlines
More flights by this operator :: More flights under this callsign
Pilot: Drew L. (13237)
Aircraft: BOEING 737-800
(B738)
More flights by this aircraft type
Origin: CYBD Bella Coola
Canada
Destination: PAJN Juneau Intl
United States
More flights between these airports :: More routes between these airports
Route: YJQ A10 PR B28 ICK A15 WUBDO SSR
File this flight plan on PilotEdge
Remarks: PBN / A1B1C1D1S1S2 DOF / 170403 REG / N806SB EET / PAZA0044 OPR / ASA RMK / TCAS SIMBRIEF
Altitude:
(Current/Filed)
36,000ft
Speed:
(Current/Filed)
455kts
Departed: 03-Apr-17 08:10 AM
Arrived: 03-Apr-17 09:38 AM
Distance/Time
Traveled:
449nm/1:27
Distance/Time
To Go:
Arrived

Flight Plot

Page will automatically refresh every two minutes.

Flight plan parsing failed; only flown route is shown


Map Options




Map Legend


Flown Route
Filed Route
Departure Airport
Arrival Airport
Navaid (VOR, NDB)
Fix

Horizontal Profiles

Position Reports

Time Latitude Longitude Heading Altitude Ground
Speed
03-Apr-17 07:48 52.388142 -126.587596 171 126ft 0kts
03-Apr-17 07:49 52.388142 -126.587596 171 126ft 0kts
03-Apr-17 07:50 52.388142 -126.587596 171 126ft 0kts
03-Apr-17 07:51 52.388142 -126.587596 171 126ft 0kts
03-Apr-17 07:52 52.388142 -126.587596 171 126ft 0kts
03-Apr-17 07:53 52.388142 -126.587596 171 126ft 0kts
03-Apr-17 07:54 52.388142 -126.587596 171 126ft 0kts
03-Apr-17 07:55 52.388142 -126.587596 171 126ft 0kts
03-Apr-17 07:56 52.388142 -126.587596 171 126ft 0kts
03-Apr-17 07:57 52.388142 -126.587596 171 126ft 0kts
03-Apr-17 07:58 52.388142 -126.587596 171 126ft 0kts
03-Apr-17 07:59 52.388142 -126.587596 171 126ft 0kts
03-Apr-17 08:00 52.388142 -126.587596 171 126ft 0kts
03-Apr-17 08:01 52.388142 -126.587596 171 126ft 0kts
03-Apr-17 08:02 52.388142 -126.587596 171 126ft 0kts
03-Apr-17 08:03 52.388142 -126.587596 171 126ft 0kts
03-Apr-17 08:04 52.388142 -126.587596 171 126ft 0kts
03-Apr-17 08:05 52.388142 -126.587596 171 126ft 0kts
03-Apr-17 08:06 52.388142 -126.587596 171 126ft 0kts
03-Apr-17 08:07 52.388142 -126.587596 171 126ft 0kts
03-Apr-17 08:08 52.388141 -126.587596 171 126ft 0kts
03-Apr-17 08:09 52.388398 -126.587677 10 126ft 6kts
03-Apr-17 08:10 52.389225 -126.588170 252 126ft 0kts
03-Apr-17 08:11 52.379918 -126.628609 257 1698ft 160kts
03-Apr-17 08:12 52.370982 -126.720224 262 4982ft 256kts
03-Apr-17 08:13 52.357496 -126.834344 259 9366ft 264kts
03-Apr-17 08:14 52.341613 -126.958354 259 12974ft 293kts
03-Apr-17 08:15 52.324417 -127.089981 260 16755ft 305kts
03-Apr-17 08:16 52.306321 -127.227347 261 20048ft 324kts
03-Apr-17 08:17 52.286437 -127.376711 261 23001ft 345kts
03-Apr-17 08:18 52.265367 -127.533664 262 25220ft 376kts
03-Apr-17 08:19 52.242908 -127.698049 261 28705ft 367kts
03-Apr-17 08:20 52.220997 -127.857544 262 31637ft 359kts
03-Apr-17 08:21 52.199217 -128.014360 262 34058ft 355kts
03-Apr-17 08:22 52.232803 -128.157853 318 35234ft 377kts
03-Apr-17 08:23 52.320480 -128.255311 322 36289ft 391kts
03-Apr-17 08:24 52.411190 -128.351839 322 36301ft 402kts
03-Apr-17 08:25 52.505543 -128.452209 322 36288ft 403kts
03-Apr-17 08:26 52.599243 -128.552408 322 36286ft 403kts
03-Apr-17 08:27 52.690989 -128.651022 322 36285ft 403kts
03-Apr-17 08:28 52.784088 -128.751601 322 36292ft 402kts
03-Apr-17 08:29 52.877397 -128.852931 322 36291ft 402kts
03-Apr-17 08:30 52.970561 -128.954638 322 36289ft 402kts
03-Apr-17 08:31 53.063303 -129.056410 322 36189ft 402kts
03-Apr-17 08:32 53.152234 -129.154501 322 36004ft 400kts
03-Apr-17 08:33 53.244414 -129.256719 322 35998ft 400kts
03-Apr-17 08:34 53.336776 -129.359666 322 35993ft 401kts
03-Apr-17 08:35 53.431639 -129.465975 322 35989ft 411kts
03-Apr-17 08:36 53.526350 -129.572693 322 35989ft 411kts
03-Apr-17 08:37 53.619330 -129.678040 321 35996ft 411kts
03-Apr-17 08:38 53.713733 -129.785555 321 35995ft 411kts
03-Apr-17 08:39 53.807953 -129.893496 321 35993ft 410kts
03-Apr-17 08:40 53.902094 -130.001973 321 35992ft 410kts
03-Apr-17 08:41 53.996221 -130.111040 321 35991ft 410kts
03-Apr-17 08:42 54.090113 -130.220449 321 35993ft 413kts
03-Apr-17 08:43 54.183906 -130.330347 321 35992ft 420kts
03-Apr-17 08:44 54.278604 -130.445409 316 36133ft 418kts
03-Apr-17 08:45 54.368295 -130.573718 316 36266ft 428kts
03-Apr-17 08:46 54.457192 -130.701647 315 36128ft 424kts
03-Apr-17 08:47 54.547152 -130.831760 315 35997ft 424kts
03-Apr-17 08:48 54.636860 -130.962287 315 35994ft 424kts
03-Apr-17 08:49 54.726576 -131.093605 315 35993ft 423kts
03-Apr-17 08:50 54.815555 -131.224628 315 36004ft 423kts
03-Apr-17 08:51 54.905047 -131.357213 315 36194ft 424kts
03-Apr-17 08:52 54.994447 -131.490451 315 36258ft 424kts
03-Apr-17 08:53 55.085594 -131.618651 324 36272ft 429kts
03-Apr-17 08:54 55.184234 -131.721683 324 36267ft 430kts
03-Apr-17 08:55 55.286783 -131.828082 324 36266ft 430kts
03-Apr-17 08:56 55.389378 -131.935094 324 36265ft 431kts
03-Apr-17 08:57 55.491881 -132.042659 324 36264ft 431kts
03-Apr-17 08:58 55.594438 -132.150943 324 36263ft 431kts
03-Apr-17 08:59 55.696905 -132.259801 324 36262ft 431kts
03-Apr-17 09:00 55.799386 -132.369349 324 36260ft 431kts
03-Apr-17 09:01 55.901281 -132.478948 324 36233ft 431kts
03-Apr-17 09:02 56.003615 -132.589710 324 36231ft 431kts
03-Apr-17 09:03 56.103028 -132.697979 323 36238ft 431kts
03-Apr-17 09:04 56.203052 -132.807573 323 36240ft 431kts
03-Apr-17 09:05 56.304999 -132.919981 323 36238ft 431kts
03-Apr-17 09:06 56.406101 -133.032162 323 36237ft 431kts
03-Apr-17 09:07 56.511990 -133.135005 330 36236ft 438kts
03-Apr-17 09:08 56.623030 -133.224540 330 36235ft 437kts
03-Apr-17 09:09 56.732607 -133.313203 330 36234ft 438kts
03-Apr-17 09:10 56.842788 -133.402867 330 35668ft 431kts
03-Apr-17 09:11 56.945592 -133.486885 329 33895ft 385kts
03-Apr-17 09:12 57.038816 -133.563971 329 32302ft 375kts
03-Apr-17 09:13 57.115436 -133.636763 318 30714ft 365kts
03-Apr-17 09:14 57.193606 -133.749571 316 29085ft 351kts
03-Apr-17 09:15 57.276471 -133.872160 316 27283ft 311kts
03-Apr-17 09:16 57.332586 -133.955953 316 26119ft 313kts
03-Apr-17 09:17 57.399126 -134.055614 316 24708ft 306kts
03-Apr-17 09:18 57.464412 -134.153897 316 23323ft 301kts
03-Apr-17 09:19 57.528725 -134.251166 316 21954ft 296kts
03-Apr-17 09:20 57.591761 -134.346944 316 20609ft 291kts
03-Apr-17 09:21 57.653702 -134.441491 316 19286ft 286kts
03-Apr-17 09:22 57.718152 -134.540508 317 17535ft 324kts
03-Apr-17 09:23 57.785807 -134.644572 317 15254ft 309kts
03-Apr-17 09:24 57.849900 -134.743832 316 13044ft 300kts
03-Apr-17 09:25 57.913126 -134.842208 317 10822ft 296kts
03-Apr-17 09:26 57.975934 -134.940404 317 8593ft 294kts
03-Apr-17 09:27 58.036485 -135.035428 317 6351ft 281kts
03-Apr-17 09:28 58.095552 -135.128662 317 4125ft 277kts
03-Apr-17 09:29 58.149729 -135.213362 326 3340ft 236kts
03-Apr-17 09:30 58.202769 -135.180751 71 3364ft 215kts
03-Apr-17 09:31 58.223579 -135.076304 61 3374ft 215kts
03-Apr-17 09:32 58.276023 -135.036570 10 3390ft 199kts
03-Apr-17 09:33 58.330646 -135.017756 10 3390ft 200kts
03-Apr-17 09:34 58.355209 -134.944478 90 2585ft 164kts
03-Apr-17 09:35 58.356466 -134.863618 89 2190ft 144kts
03-Apr-17 09:36 58.357070 -134.789632 87 1617ft 138kts
03-Apr-17 09:37 58.357497 -134.717641 87 881ft 135kts
03-Apr-17 09:38 58.358571 -134.645129 84 835ft 140kts
03-Apr-17 09:39 58.355149 -134.577406 105 16ft 21kts
03-Apr-17 09:40 58.355492 -134.572978 332 16ft 7kts
03-Apr-17 09:41 58.355923 -134.575061 285 18ft 0kts
03-Apr-17 09:42 58.356377 -134.578485 285 19ft 20kts
03-Apr-17 09:43 58.358117 -134.582972 359 19ft 1kts
03-Apr-17 09:44 58.357523 -134.711958 87 860ft 134kts
03-Apr-17 09:45 58.358844 -134.638945 83 785ft 142kts
03-Apr-17 09:46 58.357041 -134.591412 102 42ft 135kts
03-Apr-17 09:47 58.359377 -134.627763 84 644ft 147kts
03-Apr-17 09:48 58.358164 -134.582972 359 19ft 0kts
03-Apr-17 09:49 58.358164 -134.582972 359 19ft 0kts
03-Apr-17 09:50 58.358164 -134.582972 359 19ft 0kts
03-Apr-17 09:51 58.358164 -134.582972 359 19ft 0kts
03-Apr-17 09:52 58.358164 -134.582972 359 19ft 0kts
03-Apr-17 09:53 58.358164 -134.582972 359 19ft 0kts

Navigation Log

Ident Type
Flight plan parsing failed, navigation log unavailable